NCAR-RAP Real-Time Weather Data

Output produced by METARs form (12 August 2020  18:22 UTC)
found at http://weather.rap.ucar.edu/surface/
 
KLEX 121754Z 28004KT 10SM SCT032 BKN043 BKN060 28/22 A3007 RMK AO2 SLP173 T02830222 10289 20211 56004
KLEX 121654Z 00000KT 10SM FEW037 28/21 A3008 RMK AO2 SLP175 T02830211
KLEX 121554Z 32003KT 10SM SCT031 28/22 A3008 RMK AO2 SLP175 T02780217
KLEX 121454Z 00000KT 10SM FEW025 BKN040 28/22 A3008 RMK AO2 SLP176 T02780217 51005
KLEX 121354Z 08004KT 10SM CLR 27/22 A3008 RMK AO2 SLP176 T02670217
KLEX 121254Z 09003KT 10SM CLR 24/22 A3008 RMK AO2 SLP176 T02440217
KLEX 121154Z 00000KT 10SM CLR 21/21 A3007 RMK AO2 SLP172 T02110206 10228 20194 51009
KLEX 121054Z 00000KT 5SM BR CLR 20/19 A3006 RMK AO2 SLP169 T02000194
KLEX 120954Z 00000KT 9SM CLR 20/20 A3005 RMK AO2 SLP167 T02000200
KLEX 120905Z AUTO 00000KT 10SM CLR 21/20 A3004 RMK AO2 T02060200
KLEX 120854Z AUTO 00000KT 2 1/2SM BR CLR 20/20 A3004 RMK AO2 SLP162 T02000200 56002
KLEX 120754Z 00000KT 10SM CLR 22/21 A3004 RMK AO2 SLP162 T02170206
KLEX 120654Z 00000KT 8SM CLR 21/21 A3004 RMK AO2 SLP162 T02110206
KLEX 120554Z 00000KT 10SM CLR 22/21 A3004 RMK AO2 SLP164 T02220211 10272 20217 50006
KLEX 120454Z 00000KT 10SM OVC036 22/21 A3005 RMK AO2 SLP166 T02170206 403000194
KLEX 120354Z 00000KT 10SM CLR 23/21 A3004 RMK AO2 SLP161 T02330211
KLEX 120254Z 00000KT 10SM SCT035 BKN044 24/21 A3003 RMK AO2 SLP158 T02440211 51011
KLEX 120154Z 00000KT 10SM BKN043 24/21 A3002 RMK AO2 SLP155 T02390211
KLEX 120054Z 00000KT 10SM CLR 26/21 A3001 RMK AO2 SLP152 T02560206
KLEX 112354Z 25003KT 10SM FEW038 SCT046 28/21 A2999 RMK AO2 SLP148 T02780211 10300 20261 55002
KLEX 112254Z 27004KT 10SM BKN038 29/21 A2999 RMK AO2 SLP146 T02890211
KLEX 112154Z 30003KT 10SM CLR 29/21 A2999 RMK AO2 SLP147 T02890211
KLEX 112054Z VRB05KT 10SM FEW034 29/22 A3000 RMK AO2 SLP149 T02890217 58015
KLEX 111954Z 24005KT 10SM FEW029 28/21 A3002 RMK AO2 SLP157 T02780211
KLEX 111917Z 26005KT 10SM FEW026 28/21 A3003 RMK AO2 T02780211
KLEX 111854Z 28004KT 10SM BKN025 27/21 A3004 RMK AO2 SLP162 T02720211
KLEX 111837Z 00000KT 10SM BKN027 27/22 A3004 RMK AO2 T02720217
KLEX 111754Z 00000KT 10SM CLR 26/21 A3005 RMK AO2 SLP165 T02610206 10267 20200 50000
KLEX 111654Z 29005KT 10SM FEW020 26/21 A3005 RMK AO2 SLP167 T02560211
KLEX 111554Z 30004KT 10SM FEW016 26/21 A3005 RMK AO2 SLP167 T02610211
KLEX 111454Z 27005KT 10SM SCT013 24/21 A3005 RMK AO2 SLP165 T02390211 53009
KLEX 111354Z 00000KT 10SM CLR 23/20 A3003 RMK AO2 SLP159 T02280200
KLEX 111254Z 33004KT 10SM CLR 21/20 A3003 RMK AO2 SLP158 T02110200
KLEX 111154Z 30004KT 10SM CLR 20/19 A3002 RMK AO2 SLP155 70065 T02000194 10206 20194 51020
KLEX 111054Z 34005KT 10SM CLR 19/19 A3001 RMK AO2 SLP152 T01940189 $
KLEX 110954Z 20004KT 10SM CLR 20/20 A2998 RMK AO2 SLP141 T02000200 $
KLEX 110854Z AUTO 18007KT 10SM CLR 19/ A2996 RMK AO2 SLP136 T0194 56016 $
KLEX 110754Z AUTO 16006KT 10SM CLR 19/ A2997 RMK AO2 SLP140 T0194 $
KLEX 110654Z AUTO 15006KT 10SM CLR 19/ A2998 RMK AO2 SLP146 T0194 $
KLEX 110554Z AUTO 07008KT 10SM FEW110 21/ A3000 RMK AO2 RAE28 SLP152 P0003 60006 T0206 10256 20200 58017 $
KLEX 110454Z AUTO 33005KT 9SM RA SCT050 BKN110 20/20 A3005 RMK AO2 LTG DSNT SE AND S RAB01 SLP168 P0003 T02000200 402670200 $
KLEX 110406Z AUTO 32010G22KT 7SM +RA FEW021 BKN032 OVC048 21/19 A3006 RMK AO2 LTG DSNT SE AND S RAB01 P0001 T02110194 $
KLEX 110354Z AUTO 33013G34KT 10SM VCTS SCT022 BKN029 OVC070 22/19 A3006 RMK AO2 PK WND 33034/0347 LTG DSNT SE-W PRESRR SLP170 T02220194 $
KLEX 110254Z AUTO 19007KT 10SM BKN090 23/22 A3001 RMK AO2 LTG DSNT S SLP154 T02330222 50011 $
KLEX 110154Z 19004KT 10SM BKN090 24/23 A3001 RMK AO2 SLP152 T02390228 $
KLEX 110054Z 18004KT 10SM CLR 24/22 A2999 RMK AO2 SLP145 T02390222 $
KLEX 102354Z 17007KT 10SM CLR 26/22 A2998 RMK AO2 SLP141 T02560222 10267 20217 56013 $
KLEX 102254Z 19007KT 10SM CLR 26/22 A2998 RMK AO2 SLP143 T02610217 $
KLEX 102154Z 19007KT 10SM CLR 26/22 A3000 RMK AO2 SLP149 T02560217 $
KLEX 102054Z 18006KT 10SM CLR 24/22 A3002 RMK AO2 SLP155 T02440222 57022 $
KLEX 101954Z 19005KT 10SM FEW110 23/22 A3004 RMK AO2 SLP162 T02330217 $
KLEX 101854Z 15004KT 10SM CLR 23/22 A3006 RMK AO2 SLP172 T02280217 $